sensor_id;sensor_type;location;lat;lon;timestamp;pressure;altitude;pressure_sealevel;temperature
74060;BMP280;62414;53.436;8.828;2022-12-07T00:01:05;100871.53;;;3.34
74060;BMP280;62414;53.436;8.828;2022-12-07T00:03:32;100869.63;;;3.35
74060;BMP280;62414;53.436;8.828;2022-12-07T00:05:58;100869.28;;;3.40
74060;BMP280;62414;53.436;8.828;2022-12-07T00:08:23;100874.25;;;3.41
74060;BMP280;62414;53.436;8.828;2022-12-07T00:10:49;100873.16;;;3.46
74060;BMP280;62414;53.436;8.828;2022-12-07T00:13:14;100862.84;;;3.52
74060;BMP280;62414;53.436;8.828;2022-12-07T00:15:40;100870.13;;;3.51
74060;BMP280;62414;53.436;8.828;2022-12-07T00:18:05;100857.13;;;3.53
74060;BMP280;62414;53.436;8.828;2022-12-07T00:20:32;100851.38;;;3.55
74060;BMP280;62414;53.436;8.828;2022-12-07T00:22:57;100846.78;;;3.52
74060;BMP280;62414;53.436;8.828;2022-12-07T00:25:23;100843.34;;;3.48
74060;BMP280;62414;53.436;8.828;2022-12-07T00:27:48;100849.81;;;3.43
74060;BMP280;62414;53.436;8.828;2022-12-07T00:30:14;100849.75;;;3.36
74060;BMP280;62414;53.436;8.828;2022-12-07T00:32:40;100852.81;;;3.34
74060;BMP280;62414;53.436;8.828;2022-12-07T00:35:06;100839.81;;;3.33
74060;BMP280;62414;53.436;8.828;2022-12-07T00:37:32;100848.97;;;3.32
74060;BMP280;62414;53.436;8.828;2022-12-07T00:39:58;100843.25;;;3.33
74060;BMP280;62414;53.436;8.828;2022-12-07T00:42:23;100837.88;;;3.30
74060;BMP280;62414;53.436;8.828;2022-12-07T00:44:49;100841.69;;;3.29
74060;BMP280;62414;53.436;8.828;2022-12-07T00:47:14;100830.63;;;3.23
74060;BMP280;62414;53.436;8.828;2022-12-07T00:49:39;100831.72;;;3.19
74060;BMP280;62414;53.436;8.828;2022-12-07T00:52:05;100827.88;;;3.16
74060;BMP280;62414;53.436;8.828;2022-12-07T00:54:32;100829.78;;;3.16
74060;BMP280;62414;53.436;8.828;2022-12-07T00:56:57;100837.47;;;3.21
74060;BMP280;62414;53.436;8.828;2022-12-07T00:59:22;100833.63;;;3.22
74060;BMP280;62414;53.436;8.828;2022-12-07T01:01:48;100838.22;;;3.25
74060;BMP280;62414;53.436;8.828;2022-12-07T01:04:13;100837.06;;;3.22
74060;BMP280;62414;53.436;8.828;2022-12-07T01:06:39;100838.56;;;3.16
74060;BMP280;62414;53.436;8.828;2022-12-07T01:09:04;100843.88;;;3.12
74060;BMP280;62414;53.436;8.828;2022-12-07T01:11:31;100838.53;;;3.12
74060;BMP280;62414;53.436;8.828;2022-12-07T01:13:58;100840.09;;;3.17
74060;BMP280;62414;53.436;8.828;2022-12-07T01:16:28;100842.00;;;3.17
74060;BMP280;62414;53.436;8.828;2022-12-07T01:18:55;100841.66;;;3.18
74060;BMP280;62414;53.436;8.828;2022-12-07T01:21:24;100850.81;;;3.21
74060;BMP280;62414;53.436;8.828;2022-12-07T01:23:51;100857.34;;;3.27
74060;BMP280;62414;53.436;8.828;2022-12-07T01:26:19;100862.72;;;3.30
74060;BMP280;62414;53.436;8.828;2022-12-07T01:28:46;100856.59;;;3.30
74060;BMP280;62414;53.436;8.828;2022-12-07T01:31:13;100847.41;;;3.27
74060;BMP280;62414;53.436;8.828;2022-12-07T01:33:39;100842.03;;;3.20
74060;BMP280;62414;53.436;8.828;2022-12-07T01:36:07;100840.03;;;3.06
74060;BMP280;62414;53.436;8.828;2022-12-07T01:38:33;100843.75;;;2.98
74060;BMP280;62414;53.436;8.828;2022-12-07T01:41:00;100844.03;;;2.82
74060;BMP280;62414;53.436;8.828;2022-12-07T01:43:29;100843.25;;;2.78
74060;BMP280;62414;53.436;8.828;2022-12-07T01:45:56;100845.88;;;2.71
74060;BMP280;62414;53.436;8.828;2022-12-07T01:48:25;100840.84;;;2.66
74060;BMP280;62414;53.436;8.828;2022-12-07T01:50:52;100837.34;;;2.58
74060;BMP280;62414;53.436;8.828;2022-12-07T01:53:19;100841.13;;;2.54
74060;BMP280;62414;53.436;8.828;2022-12-07T01:55:47;100845.66;;;2.50
74060;BMP280;62414;53.436;8.828;2022-12-07T01:58:15;100839.50;;;2.46
74060;BMP280;62414;53.436;8.828;2022-12-07T02:00:41;100840.28;;;2.46
74060;BMP280;62414;53.436;8.828;2022-12-07T02:03:11;100841.78;;;2.44
74060;BMP280;62414;53.436;8.828;2022-12-07T02:05:40;100836.78;;;2.39
74060;BMP280;62414;53.436;8.828;2022-12-07T02:08:07;100841.31;;;2.34
74060;BMP280;62414;53.436;8.828;2022-12-07T02:10:33;100843.56;;;2.29
74060;BMP280;62414;53.436;8.828;2022-12-07T02:13:01;100842.75;;;2.25
74060;BMP280;62414;53.436;8.828;2022-12-07T02:15:34;100845.00;;;2.23
74060;BMP280;62414;53.436;8.828;2022-12-07T02:18:07;100837.03;;;2.26
74060;BMP280;62414;53.436;8.828;2022-12-07T02:20:38;100838.94;;;2.26
74060;BMP280;62414;53.436;8.828;2022-12-07T02:23:29;100844.25;;;2.22
74060;BMP280;62414;53.436;8.828;2022-12-07T02:26:24;100838.56;;;2.24
74060;BMP280;62414;53.436;8.828;2022-12-07T02:29:09;100845.81;;;2.27
74060;BMP280;62414;53.436;8.828;2022-12-07T02:31:36;100846.59;;;2.31
74060;BMP280;62414;53.436;8.828;2022-12-07T02:34:07;100844.38;;;2.37
74060;BMP280;62414;53.436;8.828;2022-12-07T02:36:38;100845.59;;;2.43
74060;BMP280;62414;53.436;8.828;2022-12-07T02:39:08;100836.88;;;2.49
74060;BMP280;62414;53.436;8.828;2022-12-07T02:41:40;100838.47;;;2.54
74060;BMP280;62414;53.436;8.828;2022-12-07T02:44:12;100832.78;;;2.59
74060;BMP280;62414;53.436;8.828;2022-12-07T02:46:41;100838.53;;;2.61
74060;BMP280;62414;53.436;8.828;2022-12-07T02:49:08;100838.19;;;2.66
74060;BMP280;62414;53.436;8.828;2022-12-07T02:51:38;100834.75;;;2.69
74060;BMP280;62414;53.436;8.828;2022-12-07T02:54:09;100845.88;;;2.71
74060;BMP280;62414;53.436;8.828;2022-12-07T02:56:41;100835.94;;;2.72
74060;BMP280;62414;53.436;8.828;2022-12-07T02:59:19;100831.72;;;2.71
74060;BMP280;62414;53.436;8.828;2022-12-07T03:01:52;100828.31;;;2.74
74060;BMP280;62414;53.436;8.828;2022-12-07T03:04:32;100821.81;;;2.75
74060;BMP280;62414;53.436;8.828;2022-12-07T03:07:05;100819.19;;;2.78
74060;BMP280;62414;53.436;8.828;2022-12-07T03:09:35;100828.72;;;2.79
74060;BMP280;62414;53.436;8.828;2022-12-07T03:12:09;100824.97;;;2.84
74060;BMP280;62414;53.436;8.828;2022-12-07T03:14:40;100809.34;;;2.86
74060;BMP280;62414;53.436;8.828;2022-12-07T03:17:10;100797.47;;;2.83
74060;BMP280;62414;53.436;8.828;2022-12-07T03:19:39;100803.91;;;2.79
74060;BMP280;62414;53.436;8.828;2022-12-07T03:22:07;100808.50;;;2.78
74060;BMP280;62414;53.436;8.828;2022-12-07T03:24:38;100809.28;;;2.82
74060;BMP280;62414;53.436;8.828;2022-12-07T03:27:07;100803.22;;;2.85
74060;BMP280;62414;53.436;8.828;2022-12-07T03:29:39;100801.69;;;2.88
74060;BMP280;62414;53.436;8.828;2022-12-07T03:32:10;100804.78;;;2.90
74060;BMP280;62414;53.436;8.828;2022-12-07T03:34:42;100807.84;;;2.96
74060;BMP280;62414;53.436;8.828;2022-12-07T03:37:12;100804.03;;;2.97
74060;BMP280;62414;53.436;8.828;2022-12-07T03:39:44;100811.69;;;2.98
74060;BMP280;62414;53.436;8.828;2022-12-07T03:42:11;100815.91;;;2.99
74060;BMP280;62414;53.436;8.828;2022-12-07T03:44:38;100811.69;;;2.95
74060;BMP280;62414;53.436;8.828;2022-12-07T03:47:09;100822.41;;;2.95
74060;BMP280;62414;53.436;8.828;2022-12-07T03:49:40;100820.06;;;2.97
74060;BMP280;62414;53.436;8.828;2022-12-07T03:52:12;100836.16;;;3.00
74060;BMP280;62414;53.436;8.828;2022-12-07T03:54:44;100827.72;;;2.98
74060;BMP280;62414;53.436;8.828;2022-12-07T03:57:11;100820.44;;;2.92
74060;BMP280;62414;53.436;8.828;2022-12-07T03:59:39;100815.88;;;2.92
74060;BMP280;62414;53.436;8.828;2022-12-07T04:02:06;100820.06;;;2.97
74060;BMP280;62414;53.436;8.828;2022-12-07T04:04:33;100824.34;;;3.08
74060;BMP280;62414;53.436;8.828;2022-12-07T04:06:59;100823.25;;;3.09
74060;BMP280;62414;53.436;8.828;2022-12-07T04:09:25;100826.69;;;3.10
74060;BMP280;62414;53.436;8.828;2022-12-07T04:11:50;100807.16;;;3.06
74060;BMP280;62414;53.436;8.828;2022-12-07T04:14:16;100817.53;;;3.11
74060;BMP280;62414;53.436;8.828;2022-12-07T04:16:42;100816.38;;;3.12
74060;BMP280;62414;53.436;8.828;2022-12-07T04:19:08;100810.22;;;3.08
74060;BMP280;62414;53.436;8.828;2022-12-07T04:21:33;100813.69;;;3.12
74060;BMP280;62414;53.436;8.828;2022-12-07T04:23:59;100811.75;;;3.05
74060;BMP280;62414;53.436;8.828;2022-12-07T04:26:24;100812.09;;;3.00
74060;BMP280;62414;53.436;8.828;2022-12-07T04:28:49;100806.69;;;2.93
74060;BMP280;62414;53.436;8.828;2022-12-07T04:31:15;100804.38;;;2.88
74060;BMP280;62414;53.436;8.828;2022-12-07T04:33:42;100804.34;;;2.84
74060;BMP280;62414;53.436;8.828;2022-12-07T04:36:07;100810.47;;;2.85
74060;BMP280;62414;53.436;8.828;2022-12-07T04:38:33;100805.91;;;2.85
74060;BMP280;62414;53.436;8.828;2022-12-07T04:40:58;100801.69;;;2.88
74060;BMP280;62414;53.436;8.828;2022-12-07T04:43:29;100797.53;;;2.91
74060;BMP280;62414;53.436;8.828;2022-12-07T04:45:54;100798.31;;;2.98
74060;BMP280;62414;53.436;8.828;2022-12-07T04:48:19;100810.59;;;3.06
74060;BMP280;62414;53.436;8.828;2022-12-07T04:50:49;100805.63;;;3.05
74060;BMP280;62414;53.436;8.828;2022-12-07T04:53:14;100787.34;;;3.10
74060;BMP280;62414;53.436;8.828;2022-12-07T04:55:39;100784.69;;;3.14
74060;BMP280;62414;53.436;8.828;2022-12-07T04:58:05;100785.47;;;3.14
74060;BMP280;62414;53.436;8.828;2022-12-07T05:00:30;100782.81;;;3.18
74060;BMP280;62414;53.436;8.828;2022-12-07T05:02:56;100780.50;;;3.17
74060;BMP280;62414;53.436;8.828;2022-12-07T05:05:21;100772.09;;;3.14
74060;BMP280;62414;53.436;8.828;2022-12-07T05:07:48;100791.53;;;3.11
74060;BMP280;62414;53.436;8.828;2022-12-07T05:10:13;100787.38;;;3.14
74060;BMP280;62414;53.436;8.828;2022-12-07T05:12:39;100793.94;;;3.24
74060;BMP280;62414;53.436;8.828;2022-12-07T05:15:05;100809.97;;;3.31
74060;BMP280;62414;53.436;8.828;2022-12-07T05:17:30;100819.53;;;3.28
74060;BMP280;62414;53.436;8.828;2022-12-07T05:19:56;100818.00;;;3.24
74060;BMP280;62414;53.436;8.828;2022-12-07T05:22:21;100802.66;;;3.13
74060;BMP280;62414;53.436;8.828;2022-12-07T05:24:48;100794.94;;;3.08
74060;BMP280;62414;53.436;8.828;2022-12-07T05:27:13;100796.84;;;3.08
74060;BMP280;62414;53.436;8.828;2022-12-07T05:29:39;100797.97;;;3.00
74060;BMP280;62414;53.436;8.828;2022-12-07T05:32:04;100799.44;;;2.97
74060;BMP280;62414;53.436;8.828;2022-12-07T05:34:30;100796.78;;;2.94
74060;BMP280;62414;53.436;8.828;2022-12-07T05:36:55;100794.09;;;2.90
74060;BMP280;62414;53.436;8.828;2022-12-07T05:39:20;100799.78;;;2.88
74060;BMP280;62414;53.436;8.828;2022-12-07T05:41:47;100797.88;;;2.89
74060;BMP280;62414;53.436;8.828;2022-12-07T05:44:13;100797.88;;;2.89
74060;BMP280;62414;53.436;8.828;2022-12-07T05:46:38;100793.34;;;2.90
74060;BMP280;62414;53.436;8.828;2022-12-07T05:49:04;100792.91;;;2.87
74060;BMP280;62414;53.436;8.828;2022-12-07T05:51:29;100785.66;;;2.88
74060;BMP280;62414;53.436;8.828;2022-12-07T05:53:55;100774.97;;;2.88
74060;BMP280;62414;53.436;8.828;2022-12-07T05:56:20;100777.63;;;2.88
74060;BMP280;62414;53.436;8.828;2022-12-07T05:58:47;100773.06;;;2.85
74060;BMP280;62414;53.436;8.828;2022-12-07T06:01:13;100765.75;;;2.82
74060;BMP280;62414;53.436;8.828;2022-12-07T06:03:38;100761.56;;;2.81
74060;BMP280;62414;53.436;8.828;2022-12-07T06:06:04;100766.50;;;2.79
74060;BMP280;62414;53.436;8.828;2022-12-07T06:08:29;100775.28;;;2.79
74060;BMP280;62414;53.436;8.828;2022-12-07T06:10:55;100767.25;;;2.79
74060;BMP280;62414;53.436;8.828;2022-12-07T06:13:20;100777.59;;;2.81
74060;BMP280;62414;53.436;8.828;2022-12-07T06:15:48;100771.09;;;2.82
74060;BMP280;62414;53.436;8.828;2022-12-07T06:18:13;100779.50;;;2.80
74060;BMP280;62414;53.436;8.828;2022-12-07T06:20:39;100781.81;;;2.82
74060;BMP280;62414;53.436;8.828;2022-12-07T06:23:04;100787.53;;;2.80
74060;BMP280;62414;53.436;8.828;2022-12-07T06:25:30;100780.19;;;2.74
74060;BMP280;62414;53.436;8.828;2022-12-07T06:27:55;100777.09;;;2.65
74060;BMP280;62414;53.436;8.828;2022-12-07T06:30:20;100779.72;;;2.57
74060;BMP280;62414;53.436;8.828;2022-12-07T06:32:47;100778.16;;;2.53
74060;BMP280;62414;53.436;8.828;2022-12-07T06:35:13;100780.41;;;2.51
74060;BMP280;62414;53.436;8.828;2022-12-07T06:37:38;100778.88;;;2.50
74060;BMP280;62414;53.436;8.828;2022-12-07T06:40:05;100786.50;;;2.48
74060;BMP280;62414;53.436;8.828;2022-12-07T06:42:30;100778.09;;;2.49
74060;BMP280;62414;53.436;8.828;2022-12-07T06:44:56;100779.28;;;2.52
74060;BMP280;62414;53.436;8.828;2022-12-07T06:47:21;100768.59;;;2.55
74060;BMP280;62414;53.436;8.828;2022-12-07T06:49:48;100775.91;;;2.58
74060;BMP280;62414;53.436;8.828;2022-12-07T06:52:13;100768.28;;;2.60
74060;BMP280;62414;53.436;8.828;2022-12-07T06:54:39;100767.16;;;2.62
74060;BMP280;62414;53.436;8.828;2022-12-07T06:57:04;100778.19;;;2.60
74060;BMP280;62414;53.436;8.828;2022-12-07T06:59:30;100782.38;;;2.57
74060;BMP280;62414;53.436;8.828;2022-12-07T07:01:55;100780.06;;;2.56
74060;BMP280;62414;53.436;8.828;2022-12-07T07:04:20;100780.06;;;2.52
74060;BMP280;62414;53.436;8.828;2022-12-07T07:06:47;100783.50;;;2.53
74060;BMP280;62414;53.436;8.828;2022-12-07T07:09:13;100779.63;;;2.50
74060;BMP280;62414;53.436;8.828;2022-12-07T07:11:38;100799.47;;;2.49
74060;BMP280;62414;53.436;8.828;2022-12-07T07:14:03;100796.03;;;2.49
74060;BMP280;62414;53.436;8.828;2022-12-07T07:16:29;100791.84;;;2.51
74060;BMP280;62414;53.436;8.828;2022-12-07T07:18:54;100798.00;;;2.52
74060;BMP280;62414;53.436;8.828;2022-12-07T07:21:20;100800.66;;;2.52
74060;BMP280;62414;53.436;8.828;2022-12-07T07:23:47;100798.75;;;2.52
74060;BMP280;62414;53.436;8.828;2022-12-07T07:26:12;100783.88;;;2.55
74060;BMP280;62414;53.436;8.828;2022-12-07T07:28:38;100786.19;;;2.56
74060;BMP280;62414;53.436;8.828;2022-12-07T07:31:04;100798.00;;;2.55
74060;BMP280;62414;53.436;8.828;2022-12-07T07:33:29;100803.75;;;2.57
74060;BMP280;62414;53.436;8.828;2022-12-07T07:35:54;100797.28;;;2.58
74060;BMP280;62414;53.436;8.828;2022-12-07T07:38:20;100793.88;;;2.62
74060;BMP280;62414;53.436;8.828;2022-12-07T07:40:47;100789.31;;;2.62
74060;BMP280;62414;53.436;8.828;2022-12-07T07:43:12;100786.22;;;2.60
74060;BMP280;62414;53.436;8.828;2022-12-07T07:45:37;100799.56;;;2.56
74060;BMP280;62414;53.436;8.828;2022-12-07T07:48:03;100790.38;;;2.54
74060;BMP280;62414;53.436;8.828;2022-12-07T07:50:28;100797.63;;;2.53
74060;BMP280;62414;53.436;8.828;2022-12-07T07:52:54;100794.22;;;2.56
74060;BMP280;62414;53.436;8.828;2022-12-07T07:55:19;100799.56;;;2.60
74060;BMP280;62414;53.436;8.828;2022-12-07T07:57:46;100800.75;;;2.66
74060;BMP280;62414;53.436;8.828;2022-12-07T08:00:14;100789.31;;;2.69
74060;BMP280;62414;53.436;8.828;2022-12-07T08:02:40;100787.44;;;2.73
74060;BMP280;62414;53.436;8.828;2022-12-07T08:05:06;100784.81;;;2.77
74060;BMP280;62414;53.436;8.828;2022-12-07T08:07:32;100787.88;;;2.79
74060;BMP280;62414;53.436;8.828;2022-12-07T08:09:57;100781.81;;;2.82
74060;BMP280;62414;53.436;8.828;2022-12-07T08:12:23;100781.03;;;2.81
74060;BMP280;62414;53.436;8.828;2022-12-07T08:14:50;100781.38;;;2.80
74060;BMP280;62414;53.436;8.828;2022-12-07T08:17:15;100786.38;;;2.81
74060;BMP280;62414;53.436;8.828;2022-12-07T08:19:40;100783.31;;;2.83
74060;BMP280;62414;53.436;8.828;2022-12-07T08:22:06;100782.59;;;2.86
74060;BMP280;62414;53.436;8.828;2022-12-07T08:24:33;100782.59;;;2.86
74060;BMP280;62414;53.436;8.828;2022-12-07T08:26:58;100790.66;;;2.90
74060;BMP280;62414;53.436;8.828;2022-12-07T08:29:24;100795.25;;;2.96
74060;BMP280;62414;53.436;8.828;2022-12-07T08:31:50;100801.03;;;3.02
74060;BMP280;62414;53.436;8.828;2022-12-07T08:34:16;100809.34;;;3.48
74060;BMP280;62414;53.436;8.828;2022-12-07T08:36:41;100798.88;;;3.22
74060;BMP280;62414;53.436;8.828;2022-12-07T08:39:07;100811.78;;;3.12
74060;BMP280;62414;53.436;8.828;2022-12-07T08:41:32;100811.78;;;3.09
74060;BMP280;62414;53.436;8.828;2022-12-07T08:43:58;100816.00;;;3.10
74060;BMP280;62414;53.436;8.828;2022-12-07T08:46:26;100815.63;;;3.15
74060;BMP280;62414;53.436;8.828;2022-12-07T08:48:57;100827.16;;;3.26
74060;BMP280;62414;53.436;8.828;2022-12-07T08:51:24;100830.69;;;3.41
74060;BMP280;62414;53.436;8.828;2022-12-07T08:53:51;100846.00;;;3.44
74060;BMP280;62414;53.436;8.828;2022-12-07T08:56:17;100847.84;;;3.36
74060;BMP280;62414;53.436;8.828;2022-12-07T08:58:43;100855.91;;;3.40
74060;BMP280;62414;53.436;8.828;2022-12-07T09:01:09;100845.59;;;3.38
74060;BMP280;62414;53.436;8.828;2022-12-07T09:03:34;100831.09;;;3.43
74060;BMP280;62414;53.436;8.828;2022-12-07T09:06:01;100829.16;;;3.40
74060;BMP280;62414;53.436;8.828;2022-12-07T09:08:31;100823.47;;;3.49
74060;BMP280;62414;53.436;8.828;2022-12-07T09:10:57;100833.78;;;3.50
74060;BMP280;62414;53.436;8.828;2022-12-07T09:13:23;100831.91;;;3.58
74060;BMP280;62414;53.436;8.828;2022-12-07T09:15:48;100829.72;;;3.71
74060;BMP280;62414;53.436;8.828;2022-12-07T09:18:14;100818.63;;;3.83
74060;BMP280;62414;53.436;8.828;2022-12-07T09:20:39;100821.28;;;3.72
74060;BMP280;62414;53.436;8.828;2022-12-07T09:23:06;100821.63;;;3.63
74060;BMP280;62414;53.436;8.828;2022-12-07T09:25:32;100816.66;;;3.62
74060;BMP280;62414;53.436;8.828;2022-12-07T09:27:58;100814.38;;;3.67
74060;BMP280;62414;53.436;8.828;2022-12-07T09:30:23;100812.44;;;3.64
74060;BMP280;62414;53.436;8.828;2022-12-07T09:32:49;100818.56;;;3.65
74060;BMP280;62414;53.436;8.828;2022-12-07T09:35:14;100823.91;;;3.61
74060;BMP280;62414;53.436;8.828;2022-12-07T09:37:40;100819.72;;;3.64
74060;BMP280;62414;53.436;8.828;2022-12-07T09:40:07;100823.53;;;3.63
74060;BMP280;62414;53.436;8.828;2022-12-07T09:42:35;100836.53;;;3.61
74060;BMP280;62414;53.436;8.828;2022-12-07T09:45:01;100833.03;;;3.50
74060;BMP280;62414;53.436;8.828;2022-12-07T09:47:27;100831.50;;;3.52
74060;BMP280;62414;53.436;8.828;2022-12-07T09:49:55;100823.84;;;3.44
74060;BMP280;62414;53.436;8.828;2022-12-07T09:52:27;100823.47;;;3.52
74060;BMP280;62414;53.436;8.828;2022-12-07T09:54:53;100812.78;;;3.59
74060;BMP280;62414;53.436;8.828;2022-12-07T09:57:28;100801.75;;;3.61
74060;BMP280;62414;53.436;8.828;2022-12-07T09:59:55;100802.91;;;3.67
74060;BMP280;62414;53.436;8.828;2022-12-07T10:02:25;100797.97;;;3.73
74060;BMP280;62414;53.436;8.828;2022-12-07T10:04:53;100798.75;;;3.84
74060;BMP280;62414;53.436;8.828;2022-12-07T10:07:18;100802.59;;;3.93
74060;BMP280;62414;53.436;8.828;2022-12-07T10:09:44;100802.97;;;3.88
74060;BMP280;62414;53.436;8.828;2022-12-07T10:12:11;100794.56;;;3.86
74060;BMP280;62414;53.436;8.828;2022-12-07T10:14:39;100797.63;;;3.85
74060;BMP280;62414;53.436;8.828;2022-12-07T10:17:30;100794.22;;;3.95
74060;BMP280;62414;53.436;8.828;2022-12-07T10:20:12;100793.44;;;4.02
74060;BMP280;62414;53.436;8.828;2022-12-07T10:22:38;100797.66;;;4.10
74060;BMP280;62414;53.436;8.828;2022-12-07T10:25:20;100799.59;;;4.13
74060;BMP280;62414;53.436;8.828;2022-12-07T10:27:57;100811.06;;;4.17
74060;BMP280;62414;53.436;8.828;2022-12-07T10:30:24;100809.56;;;4.30
74060;BMP280;62414;53.436;8.828;2022-12-07T10:32:49;100822.97;;;4.30
74060;BMP280;62414;53.436;8.828;2022-12-07T10:35:21;100818.38;;;4.27
74060;BMP280;62414;53.436;8.828;2022-12-07T10:37:48;100821.81;;;4.45
74060;BMP280;62414;53.436;8.828;2022-12-07T10:40:25;100819.91;;;4.49
74060;BMP280;62414;53.436;8.828;2022-12-07T10:43:00;100826.03;;;4.43
74060;BMP280;62414;53.436;8.828;2022-12-07T10:45:28;100827.53;;;4.30
74060;BMP280;62414;53.436;8.828;2022-12-07T10:47:59;100819.13;;;4.24
74060;BMP280;62414;53.436;8.828;2022-12-07T10:50:41;100814.13;;;4.12
74060;BMP280;62414;53.436;8.828;2022-12-07T10:53:26;100808.38;;;4.10
74060;BMP280;62414;53.436;8.828;2022-12-07T10:56:23;100797.28;;;4.18
74060;BMP280;62414;53.436;8.828;2022-12-07T10:58:59;100797.31;;;4.29
74060;BMP280;62414;53.436;8.828;2022-12-07T11:01:32;100783.16;;;4.46
74060;BMP280;62414;53.436;8.828;2022-12-07T11:04:13;100785.81;;;4.64
74060;BMP280;62414;53.436;8.828;2022-12-07T11:06:47;100778.91;;;4.78
74060;BMP280;62414;53.436;8.828;2022-12-07T11:09:32;100774.72;;;4.66
74060;BMP280;62414;53.436;8.828;2022-12-07T11:12:05;100767.06;;;4.71
74060;BMP280;62414;53.436;8.828;2022-12-07T11:14:40;100762.81;;;4.81
74060;BMP280;62414;53.436;8.828;2022-12-07T11:17:13;100766.63;;;4.84
74060;BMP280;62414;53.436;8.828;2022-12-07T11:19:52;100759.00;;;4.89
74060;BMP280;62414;53.436;8.828;2022-12-07T11:22:25;100758.59;;;4.87
74060;BMP280;62414;53.436;8.828;2022-12-07T11:24:59;100760.50;;;4.87
74060;BMP280;62414;53.436;8.828;2022-12-07T11:27:32;100764.34;;;4.89
74060;BMP280;62414;53.436;8.828;2022-12-07T11:30:10;100755.53;;;4.89
74060;BMP280;62414;53.436;8.828;2022-12-07T11:32:51;100752.47;;;4.83
74060;BMP280;62414;53.436;8.828;2022-12-07T11:35:24;100746.72;;;4.78
74060;BMP280;62414;53.436;8.828;2022-12-07T11:37:57;100750.94;;;4.79
74060;BMP280;62414;53.436;8.828;2022-12-07T11:40:26;100744.84;;;4.67
74060;BMP280;62414;53.436;8.828;2022-12-07T11:42:58;100733.34;;;4.67
74060;BMP280;62414;53.436;8.828;2022-12-07T11:45:26;100734.47;;;4.69
74060;BMP280;62414;53.436;8.828;2022-12-07T11:47:58;100736.81;;;4.74
74060;BMP280;62414;53.436;8.828;2022-12-07T11:50:27;100745.59;;;4.64
74060;BMP280;62414;53.436;8.828;2022-12-07T11:52:58;100751.00;;;4.57
74060;BMP280;62414;53.436;8.828;2022-12-07T11:55:38;100757.91;;;4.51
74060;BMP280;62414;53.436;8.828;2022-12-07T11:58:19;100754.06;;;4.41
74060;BMP280;62414;53.436;8.828;2022-12-07T12:00:45;100746.41;;;4.33
74060;BMP280;62414;53.436;8.828;2022-12-07T12:03:15;100742.94;;;4.21
74060;BMP280;62414;53.436;8.828;2022-12-07T12:05:44;100749.84;;;4.15
74060;BMP280;62414;53.436;8.828;2022-12-07T12:08:14;100738.75;;;4.13
74060;BMP280;62414;53.436;8.828;2022-12-07T12:10:52;100738.75;;;4.13
74060;BMP280;62414;53.436;8.828;2022-12-07T12:13:33;100731.84;;;4.27
74060;BMP280;62414;53.436;8.828;2022-12-07T12:16:13;100738.75;;;4.38
74060;BMP280;62414;53.436;8.828;2022-12-07T12:19:17;100741.81;;;4.47
74060;BMP280;62414;53.436;8.828;2022-12-07T12:21:46;100746.03;;;4.52
74060;BMP280;62414;53.436;8.828;2022-12-07T12:24:15;100747.19;;;4.51
74060;BMP280;62414;53.436;8.828;2022-12-07T12:26:49;100739.50;;;4.53
74060;BMP280;62414;53.436;8.828;2022-12-07T12:29:21;100739.88;;;4.48
74060;BMP280;62414;53.436;8.828;2022-12-07T12:32:06;100733.00;;;4.43
74060;BMP280;62414;53.436;8.828;2022-12-07T12:34:39;100734.16;;;4.53
74060;BMP280;62414;53.436;8.828;2022-12-07T12:37:39;100743.72;;;4.54
74060;BMP280;62414;53.436;8.828;2022-12-07T12:40:45;100744.09;;;4.45
74060;BMP280;62414;53.436;8.828;2022-12-07T12:43:49;100741.81;;;4.30
74060;BMP280;62414;53.436;8.828;2022-12-07T12:49:36;100736.78;;;3.89
74060;BMP280;62414;53.436;8.828;2022-12-07T12:55:13;100729.84;;;3.63
74060;BMP280;62414;53.436;8.828;2022-12-07T12:57:40;100721.00;;;3.55
74060;BMP280;62414;53.436;8.828;2022-12-07T13:00:16;100717.19;;;3.53
74060;BMP280;62414;53.436;8.828;2022-12-07T13:02:48;100706.50;;;3.56
74060;BMP280;62414;53.436;8.828;2022-12-07T13:05:20;100705.34;;;3.54
74060;BMP280;62414;53.436;8.828;2022-12-07T13:07:53;100699.63;;;3.59
74060;BMP280;62414;53.436;8.828;2022-12-07T13:10:36;100690.50;;;3.74
74060;BMP280;62414;53.436;8.828;2022-12-07T13:13:25;100692.41;;;3.84
74060;BMP280;62414;53.436;8.828;2022-12-07T13:15:51;100692.41;;;3.88
74060;BMP280;62414;53.436;8.828;2022-12-07T13:18:24;100680.56;;;3.92
74060;BMP280;62414;53.436;8.828;2022-12-07T13:20:56;100677.50;;;3.98
74060;BMP280;62414;53.436;8.828;2022-12-07T13:23:24;100684.03;;;4.11
74060;BMP280;62414;53.436;8.828;2022-12-07T13:26:23;100676.34;;;4.20
74060;BMP280;62414;53.436;8.828;2022-12-07T13:28:52;100681.31;;;4.25
74060;BMP280;62414;53.436;8.828;2022-12-07T13:31:32;100689.00;;;4.23
74060;BMP280;62414;53.436;8.828;2022-12-07T13:33:58;100699.31;;;4.17
74060;BMP280;62414;53.436;8.828;2022-12-07T13:36:28;100705.81;;;3.99
74060;BMP280;62414;53.436;8.828;2022-12-07T13:38:56;100711.16;;;3.74
74060;BMP280;62414;53.436;8.828;2022-12-07T13:41:24;100722.53;;;3.46
74060;BMP280;62414;53.436;8.828;2022-12-07T13:43:59;100720.16;;;3.23
74060;BMP280;62414;53.436;8.828;2022-12-07T13:46:40;100713.19;;;3.07
74060;BMP280;62414;53.436;8.828;2022-12-07T13:49:17;100710.19;;;3.16
74060;BMP280;62414;53.436;8.828;2022-12-07T13:51:46;100697.31;;;3.47
74060;BMP280;62414;53.436;8.828;2022-12-07T13:54:13;100688.97;;;3.73
74060;BMP280;62414;53.436;8.828;2022-12-07T13:56:39;100684.00;;;4.00
74060;BMP280;62414;53.436;8.828;2022-12-07T13:59:07;100690.88;;;4.01
74060;BMP280;62414;53.436;8.828;2022-12-07T14:01:36;100698.94;;;3.94
74060;BMP280;62414;53.436;8.828;2022-12-07T14:04:29;100695.47;;;3.93
74060;BMP280;62414;53.436;8.828;2022-12-07T14:06:57;100692.06;;;3.97
74060;BMP280;62414;53.436;8.828;2022-12-07T14:09:24;100694.72;;;3.89
74060;BMP280;62414;53.436;8.828;2022-12-07T14:11:51;100689.34;;;3.82
74060;BMP280;62414;53.436;8.828;2022-12-07T14:14:19;100687.41;;;3.79
74060;BMP280;62414;53.436;8.828;2022-12-07T14:16:56;100690.13;;;3.72
74060;BMP280;62414;53.436;8.828;2022-12-07T14:19:44;100675.94;;;3.64
74060;BMP280;62414;53.436;8.828;2022-12-07T14:22:22;100682.81;;;3.58
74060;BMP280;62414;53.436;8.828;2022-12-07T14:24:47;100678.97;;;3.52
74060;BMP280;62414;53.436;8.828;2022-12-07T14:27:18;100677.81;;;3.50